createdAt,value
2023-03-29T00:02:13.259Z,101631.00
2023-03-29T00:04:42.467Z,101643.00
2023-03-29T00:07:09.350Z,101634.00
2023-03-29T00:09:36.485Z,101626.00
2023-03-29T00:12:04.241Z,101621.00
2023-03-29T00:14:31.267Z,101628.00
2023-03-29T00:16:59.102Z,101635.00
2023-03-29T00:19:26.545Z,101628.00
2023-03-29T00:21:53.608Z,101622.00
2023-03-29T00:24:21.446Z,101619.00
2023-03-29T00:26:48.519Z,101609.00
2023-03-29T00:29:15.519Z,101619.00
2023-03-29T00:31:42.535Z,101601.00
2023-03-29T00:34:09.452Z,101615.00
2023-03-29T00:36:36.192Z,101619.00
2023-03-29T00:39:02.988Z,101609.00
2023-03-29T00:41:29.795Z,101607.00
2023-03-29T00:44:03.722Z,101606.00
2023-03-29T00:46:31.420Z,101602.00
2023-03-29T00:49:07.258Z,101600.00
2023-03-29T00:51:38.209Z,101593.00
2023-03-29T00:54:08.249Z,101592.00
2023-03-29T00:56:40.074Z,101589.00
2023-03-29T00:59:19.223Z,101592.00
2023-03-29T01:01:54.795Z,101582.00
2023-03-29T01:04:31.144Z,101575.00
2023-03-29T01:07:07.326Z,101573.00
2023-03-29T01:09:38.085Z,101568.00
2023-03-29T01:12:17.127Z,101571.00
2023-03-29T01:15:02.101Z,101567.00
2023-03-29T01:17:31.719Z,101562.00
2023-03-29T01:20:27.032Z,101560.00
2023-03-29T01:23:22.215Z,101552.00
2023-03-29T01:26:00.127Z,101543.00
2023-03-29T01:28:46.824Z,101545.00
2023-03-29T01:31:23.789Z,101538.00
2023-03-29T01:34:01.464Z,101534.00
2023-03-29T01:36:39.299Z,101526.00
2023-03-29T01:39:07.940Z,101527.00
2023-03-29T01:41:55.473Z,101521.00
2023-03-29T01:44:37.405Z,101518.00
2023-03-29T01:47:43.878Z,101506.00
2023-03-29T01:50:31.715Z,101497.00
2023-03-29T01:53:10.245Z,101506.00
2023-03-29T01:55:42.900Z,101497.00
2023-03-29T01:58:13.520Z,101493.00
2023-03-29T02:00:42.421Z,101490.00
2023-03-29T02:03:10.585Z,101486.00
2023-03-29T02:05:39.722Z,101483.00
2023-03-29T02:08:11.589Z,101476.00
2023-03-29T02:10:38.943Z,101478.00
2023-03-29T02:13:06.221Z,101472.00
2023-03-29T02:15:33.236Z,101476.00
2023-03-29T02:18:00.209Z,101476.00
2023-03-29T02:20:36.848Z,101469.00
2023-03-29T02:23:30.408Z,101474.00
2023-03-29T02:25:57.227Z,101465.00
2023-03-29T02:28:26.069Z,101456.00
2023-03-29T02:31:07.854Z,101461.00
2023-03-29T02:33:45.617Z,101447.00
2023-03-29T02:36:38.211Z,101442.00
2023-03-29T02:39:06.291Z,101440.00
2023-03-29T02:41:34.654Z,101442.00
2023-03-29T02:44:04.075Z,101427.00
2023-03-29T02:46:31.409Z,101428.00
2023-03-29T02:48:59.799Z,101433.00
2023-03-29T02:51:34.107Z,101425.00
2023-03-29T02:54:12.928Z,101428.00
2023-03-29T02:56:45.094Z,101420.00
2023-03-29T02:59:12.723Z,101425.00
2023-03-29T03:01:44.910Z,101416.00
2023-03-29T03:04:13.353Z,101425.00
2023-03-29T03:06:41.078Z,101417.00
2023-03-29T03:09:08.519Z,101412.00
2023-03-29T03:11:35.360Z,101418.00
2023-03-29T03:14:02.383Z,101410.00
2023-03-29T03:16:29.317Z,101403.00
2023-03-29T03:18:56.203Z,101407.00
2023-03-29T03:21:23.474Z,101399.00
2023-03-29T03:23:50.413Z,101395.00
2023-03-29T03:26:18.217Z,101397.00
2023-03-29T03:28:48.350Z,101387.00
2023-03-29T03:31:15.214Z,101387.00
2023-03-29T03:33:42.163Z,101386.00
2023-03-29T03:36:11.232Z,101391.00
2023-03-29T03:38:38.813Z,101395.00
2023-03-29T03:41:09.791Z,101394.00
2023-03-29T03:43:36.586Z,101388.00
2023-03-29T03:46:03.554Z,101389.00
2023-03-29T03:48:30.486Z,101385.00
2023-03-29T03:50:59.128Z,101381.00
2023-03-29T03:53:28.462Z,101378.00
2023-03-29T03:55:56.068Z,101375.00
2023-03-29T03:58:23.986Z,101376.00
2023-03-29T04:00:51.618Z,101368.00
2023-03-29T04:03:19.323Z,101373.00
2023-03-29T04:05:47.508Z,101377.00
2023-03-29T04:08:15.014Z,101367.00
2023-03-29T04:10:42.332Z,101377.00
2023-03-29T04:13:09.057Z,101368.00
2023-03-29T04:15:39.210Z,101368.00
2023-03-29T04:18:07.601Z,101365.00
2023-03-29T04:20:34.635Z,101369.00
2023-03-29T04:23:01.821Z,101370.00
2023-03-29T04:25:29.538Z,101366.00
2023-03-29T04:27:56.655Z,101372.00
2023-03-29T04:30:23.656Z,101367.00
2023-03-29T04:32:50.730Z,101371.00
2023-03-29T04:35:17.915Z,101366.00
2023-03-29T04:37:44.653Z,101360.00
2023-03-29T04:40:14.435Z,101362.00
2023-03-29T04:42:45.864Z,101356.00
2023-03-29T04:45:18.065Z,101360.00
2023-03-29T04:47:45.858Z,101352.00
2023-03-29T04:50:13.893Z,101356.00
2023-03-29T04:52:41.004Z,101355.00
2023-03-29T04:55:08.691Z,101358.00
2023-03-29T04:57:35.720Z,101348.00
2023-03-29T05:00:14.218Z,101341.00
2023-03-29T05:02:45.515Z,101349.00
2023-03-29T05:05:13.854Z,101344.00
2023-03-29T05:07:40.933Z,101346.00
2023-03-29T05:10:09.299Z,101339.00
2023-03-29T05:12:36.762Z,101334.00
2023-03-29T05:15:05.494Z,101339.00
2023-03-29T05:17:32.504Z,101333.00
2023-03-29T05:19:59.899Z,101337.00
2023-03-29T05:22:28.299Z,101335.00
2023-03-29T05:24:55.048Z,101335.00
2023-03-29T05:27:23.199Z,101330.00
2023-03-29T05:29:49.974Z,101332.00
2023-03-29T05:32:16.861Z,101322.00
2023-03-29T05:34:43.643Z,101320.00
2023-03-29T05:37:10.812Z,101322.00
2023-03-29T05:39:37.778Z,101315.00
2023-03-29T05:42:05.884Z,101322.00
2023-03-29T05:44:32.750Z,101319.00
2023-03-29T05:46:59.629Z,101314.00
2023-03-29T05:49:27.027Z,101319.00
2023-03-29T05:51:56.876Z,101315.00
2023-03-29T05:54:25.335Z,101322.00
2023-03-29T05:56:52.451Z,101316.00
2023-03-29T05:59:19.714Z,101316.00
2023-03-29T06:01:46.986Z,101310.00
2023-03-29T06:04:15.374Z,101318.00
2023-03-29T06:06:42.745Z,101317.00
2023-03-29T06:09:09.949Z,101316.00
2023-03-29T06:11:36.785Z,101309.00
2023-03-29T06:14:04.083Z,101316.00
2023-03-29T06:16:31.079Z,101317.00
2023-03-29T06:18:58.209Z,101316.00
2023-03-29T06:21:26.593Z,101315.00
2023-03-29T06:23:53.407Z,101321.00
2023-03-29T06:26:20.950Z,101325.00
2023-03-29T06:28:51.413Z,101306.00
2023-03-29T06:31:19.915Z,101305.00
2023-03-29T06:33:46.855Z,101306.00
2023-03-29T06:36:16.073Z,101307.00
2023-03-29T06:38:45.436Z,101306.00
2023-03-29T06:41:12.243Z,101302.00
2023-03-29T06:43:39.310Z,101303.00
2023-03-29T06:46:11.753Z,101306.00
2023-03-29T06:48:40.971Z,101300.00
2023-03-29T06:51:08.347Z,101300.00
2023-03-29T06:53:36.656Z,101293.00
2023-03-29T06:56:08.908Z,101291.00
2023-03-29T06:58:36.197Z,101285.00
2023-03-29T07:01:04.167Z,101286.00
2023-03-29T07:03:31.541Z,101296.00
2023-03-29T07:06:09.677Z,101291.00
2023-03-29T07:08:43.676Z,101297.00
2023-03-29T07:11:13.143Z,101292.00
2023-03-29T07:13:44.597Z,101287.00
2023-03-29T07:16:13.858Z,101286.00
2023-03-29T07:18:42.827Z,101297.00
2023-03-29T07:21:12.385Z,101303.00
2023-03-29T07:23:40.011Z,101283.00
2023-03-29T07:26:07.932Z,101292.00
2023-03-29T07:28:37.566Z,101291.00
2023-03-29T07:31:11.810Z,101298.00
2023-03-29T07:33:39.365Z,101284.00
2023-03-29T07:36:06.942Z,101290.00
2023-03-29T07:38:34.133Z,101289.00
2023-03-29T07:41:08.116Z,101290.00
2023-03-29T07:43:35.254Z,101297.00
2023-03-29T07:46:05.308Z,101287.00
2023-03-29T07:48:33.792Z,101286.00
2023-03-29T07:51:01.488Z,101290.00
2023-03-29T07:53:29.625Z,101286.00
2023-03-29T07:55:57.120Z,101281.00
2023-03-29T07:58:23.953Z,101282.00
2023-03-29T08:00:50.896Z,101278.00
2023-03-29T08:03:17.830Z,101277.00
2023-03-29T08:05:45.038Z,101268.00
2023-03-29T08:08:12.319Z,101272.00
2023-03-29T08:10:39.504Z,101272.00
2023-03-29T08:13:09.413Z,101282.00
2023-03-29T08:15:39.417Z,101292.00
2023-03-29T08:18:07.990Z,101277.00
2023-03-29T08:20:34.982Z,101290.00
2023-03-29T08:23:01.813Z,101288.00
2023-03-29T08:25:28.729Z,101287.00
2023-03-29T08:27:55.486Z,101285.00
2023-03-29T08:30:22.344Z,101278.00
2023-03-29T08:32:52.163Z,101280.00
2023-03-29T08:35:21.294Z,101272.00
2023-03-29T08:37:48.124Z,101271.00
2023-03-29T08:40:24.695Z,101269.00
2023-03-29T08:42:54.472Z,101276.00
2023-03-29T08:45:29.906Z,101264.00
2023-03-29T08:48:48.260Z,101263.00
2023-03-29T08:51:27.678Z,101255.00
2023-03-29T08:54:06.592Z,101251.00
2023-03-29T08:56:39.731Z,101243.00
2023-03-29T08:59:22.511Z,101251.00
2023-03-29T09:01:54.285Z,101242.00
2023-03-29T09:04:28.499Z,101248.00
2023-03-29T09:06:55.636Z,101238.00
2023-03-29T09:09:29.534Z,101228.00
2023-03-29T09:12:28.590Z,101241.00
2023-03-29T09:15:16.128Z,101243.00
2023-03-29T09:17:54.613Z,101244.00
2023-03-29T09:20:37.289Z,101237.00
2023-03-29T09:23:41.092Z,101234.00
2023-03-29T09:26:24.474Z,101235.00
2023-03-29T09:29:33.419Z,101222.00
2023-03-29T09:32:11.009Z,101234.00
2023-03-29T09:35:18.628Z,101232.00
2023-03-29T09:37:49.371Z,101227.00
2023-03-29T09:40:30.933Z,101227.00
2023-03-29T09:43:01.822Z,101224.00
2023-03-29T09:45:29.042Z,101214.00
2023-03-29T09:48:05.273Z,101218.00
2023-03-29T09:50:41.219Z,101204.00
2023-03-29T09:53:09.767Z,101212.00
2023-03-29T09:55:39.635Z,101210.00
2023-03-29T09:58:27.612Z,101209.00
2023-03-29T10:00:59.795Z,101196.00
2023-03-29T10:03:33.686Z,101209.00
2023-03-29T10:06:03.372Z,101214.00
2023-03-29T10:08:39.667Z,101205.00
2023-03-29T10:11:20.376Z,101203.00
2023-03-29T10:13:51.484Z,101190.00
2023-03-29T10:16:29.879Z,101186.00
2023-03-29T10:18:57.089Z,101182.00
2023-03-29T10:21:24.339Z,101182.00
2023-03-29T10:23:59.349Z,101187.00
2023-03-29T10:26:34.416Z,101179.00
2023-03-29T10:29:07.126Z,101178.00
2023-03-29T10:31:38.107Z,101173.00
2023-03-29T10:34:06.760Z,101172.00
2023-03-29T10:36:34.132Z,101177.00
2023-03-29T10:39:06.047Z,101169.00
2023-03-29T10:41:36.331Z,101157.00
2023-03-29T10:44:03.653Z,101166.00
2023-03-29T10:46:40.446Z,101164.00
2023-03-29T10:49:19.499Z,101151.00
2023-03-29T10:51:49.450Z,101158.00
2023-03-29T10:54:21.943Z,101146.00
2023-03-29T10:57:00.434Z,101156.00
2023-03-29T11:00:01.227Z,101140.00
2023-03-29T11:03:04.223Z,101144.00
2023-03-29T11:05:49.789Z,101145.00
2023-03-29T11:08:54.966Z,101139.00
2023-03-29T11:12:04.740Z,101133.00
2023-03-29T11:15:09.525Z,101145.00
2023-03-29T11:18:10.924Z,101142.00
2023-03-29T11:21:12.529Z,101131.00
2023-03-29T11:23:48.223Z,101128.00
2023-03-29T11:26:24.603Z,101132.00
2023-03-29T11:29:22.830Z,101134.00
2023-03-29T11:32:17.774Z,101135.00
2023-03-29T11:35:28.271Z,101131.00
2023-03-29T11:38:09.259Z,101119.00
2023-03-29T11:40:45.678Z,101108.00
2023-03-29T11:43:31.422Z,101110.00
2023-03-29T11:46:21.811Z,101110.00
2023-03-29T11:49:12.308Z,101113.00
2023-03-29T11:51:48.800Z,101123.00
2023-03-29T11:54:28.467Z,101111.00
2023-03-29T11:57:12.655Z,101113.00
2023-03-29T11:59:49.981Z,101115.00
2023-03-29T12:02:27.652Z,101107.00
2023-03-29T12:04:59.765Z,101103.00
2023-03-29T12:07:35.508Z,101107.00
2023-03-29T12:10:21.335Z,101113.00
2023-03-29T12:13:27.063Z,101102.00
2023-03-29T12:16:27.324Z,101091.00
2023-03-29T12:19:04.365Z,101089.00
2023-03-29T12:21:33.888Z,101089.00
2023-03-29T12:24:00.767Z,101084.00
2023-03-29T12:27:17.089Z,101085.00
2023-03-29T12:30:08.661Z,101078.00
2023-03-29T12:33:15.327Z,101088.00
2023-03-29T12:36:13.613Z,101096.00
2023-03-29T12:38:43.917Z,101087.00
2023-03-29T12:41:19.087Z,101090.00
2023-03-29T12:43:48.361Z,101080.00
2023-03-29T12:46:33.549Z,101084.00
2023-03-29T12:49:21.025Z,101088.00
2023-03-29T12:51:48.898Z,101082.00
2023-03-29T12:54:28.257Z,101077.00
2023-03-29T12:57:01.877Z,101067.00
2023-03-29T12:59:40.068Z,101060.00
2023-03-29T13:02:13.835Z,101067.00
2023-03-29T13:04:44.025Z,101047.00
2023-03-29T13:07:23.066Z,101039.00
2023-03-29T13:09:53.887Z,101039.00
2023-03-29T13:12:46.105Z,101040.00
2023-03-29T13:15:16.921Z,101052.00
2023-03-29T13:18:20.372Z,101052.00
2023-03-29T13:21:20.876Z,101051.00
2023-03-29T13:24:05.854Z,101051.00
2023-03-29T13:27:12.779Z,101050.00
2023-03-29T13:30:15.564Z,101040.00
2023-03-29T13:32:57.362Z,101049.00
2023-03-29T13:35:56.050Z,101054.00
2023-03-29T13:38:32.141Z,101051.00
2023-03-29T13:41:41.070Z,101064.00
2023-03-29T13:44:27.041Z,101057.00
2023-03-29T13:47:26.413Z,101052.00
2023-03-29T13:49:59.127Z,101050.00
2023-03-29T13:52:34.863Z,101059.00
2023-03-29T13:55:17.495Z,101048.00
2023-03-29T13:57:56.771Z,101052.00
2023-03-29T14:00:32.222Z,101045.00
2023-03-29T14:03:05.245Z,101043.00
2023-03-29T14:05:38.468Z,101039.00
2023-03-29T14:08:36.557Z,101037.00
2023-03-29T14:11:07.013Z,101037.00
2023-03-29T14:13:34.951Z,101044.00
2023-03-29T14:16:10.309Z,101040.00
2023-03-29T14:18:41.192Z,101046.00
2023-03-29T14:21:12.387Z,101051.00
2023-03-29T14:23:42.064Z,101047.00
2023-03-29T14:26:18.975Z,101049.00
2023-03-29T14:28:53.415Z,101053.00
2023-03-29T14:31:46.862Z,101048.00
2023-03-29T14:34:17.003Z,101041.00
2023-03-29T14:36:49.373Z,101039.00
2023-03-29T14:39:23.276Z,101032.00
2023-03-29T14:41:59.491Z,101034.00
2023-03-29T14:44:33.110Z,101031.00
2023-03-29T14:47:02.440Z,101034.00
2023-03-29T14:49:30.208Z,101031.00
2023-03-29T14:51:57.673Z,101025.00
2023-03-29T14:54:29.856Z,101030.00
2023-03-29T14:56:56.809Z,101027.00
2023-03-29T14:59:34.821Z,101030.00
2023-03-29T15:02:01.609Z,101028.00
2023-03-29T15:05:04.740Z,101023.00
2023-03-29T15:07:34.905Z,101035.00
2023-03-29T15:10:05.509Z,101013.00
2023-03-29T15:12:34.182Z,101022.00
2023-03-29T15:15:02.654Z,101028.00
2023-03-29T15:17:51.211Z,101018.00
2023-03-29T15:20:26.170Z,101019.00
2023-03-29T15:23:04.623Z,101014.00
2023-03-29T15:25:47.698Z,101013.00
2023-03-29T15:28:35.427Z,101000.00
2023-03-29T15:31:16.265Z,100998.00
2023-03-29T15:33:43.403Z,100998.00
2023-03-29T15:36:13.070Z,100994.00
2023-03-29T15:38:44.533Z,100988.00
2023-03-29T15:41:14.222Z,100982.00
2023-03-29T15:43:41.953Z,100974.00
2023-03-29T15:46:11.993Z,100969.00
2023-03-29T15:48:39.905Z,100967.00
2023-03-29T15:51:07.529Z,100968.00
2023-03-29T15:53:35.825Z,100958.00
2023-03-29T15:56:07.958Z,100956.00
2023-03-29T15:58:36.019Z,100950.00
2023-03-29T16:01:36.580Z,100943.00
2023-03-29T16:04:12.460Z,100931.00
2023-03-29T16:06:39.277Z,100932.00
2023-03-29T16:09:07.035Z,100925.00
2023-03-29T16:11:34.993Z,100938.00
2023-03-29T16:14:01.793Z,100930.00
2023-03-29T16:16:28.795Z,100932.00
2023-03-29T16:18:55.621Z,100937.00
2023-03-29T16:21:23.010Z,100938.00
2023-03-29T16:23:49.905Z,100944.00
2023-03-29T16:26:17.532Z,100938.00
2023-03-29T16:28:44.694Z,100950.00
2023-03-29T16:31:13.569Z,100943.00
2023-03-29T16:33:41.366Z,100944.00
2023-03-29T16:36:09.540Z,100943.00
2023-03-29T16:38:36.331Z,100946.00
2023-03-29T16:41:03.793Z,100940.00
2023-03-29T16:43:30.580Z,100948.00
2023-03-29T16:45:57.431Z,100938.00
2023-03-29T16:48:24.275Z,100949.00
2023-03-29T16:50:52.118Z,100948.00
2023-03-29T16:53:19.683Z,100942.00
2023-03-29T16:55:47.608Z,100932.00
2023-03-29T16:58:15.450Z,100928.00
2023-03-29T17:00:44.366Z,100935.00
2023-03-29T17:03:12.758Z,100931.00
2023-03-29T17:05:42.303Z,100926.00
2023-03-29T17:08:10.312Z,100926.00
2023-03-29T17:10:40.701Z,100935.00
2023-03-29T17:13:08.098Z,100923.00
2023-03-29T17:15:38.136Z,100931.00
2023-03-29T17:18:06.521Z,100934.00
2023-03-29T17:20:33.319Z,100925.00
2023-03-29T17:23:00.127Z,100917.00
2023-03-29T17:25:26.873Z,100919.00
2023-03-29T17:27:54.089Z,100922.00
2023-03-29T17:30:21.181Z,100928.00
2023-03-29T17:32:48.135Z,100923.00
2023-03-29T17:35:15.041Z,100925.00
2023-03-29T17:37:42.545Z,100909.00
2023-03-29T17:40:11.246Z,100921.00
2023-03-29T17:42:38.041Z,100919.00
2023-03-29T17:45:06.187Z,100910.00
2023-03-29T17:47:33.000Z,100918.00
2023-03-29T17:50:00.260Z,100913.00
2023-03-29T17:52:27.140Z,100920.00
2023-03-29T17:54:53.905Z,100914.00
2023-03-29T17:57:21.856Z,100922.00
2023-03-29T17:59:48.696Z,100917.00
2023-03-29T18:02:23.290Z,100923.00
2023-03-29T18:04:50.840Z,100922.00
2023-03-29T18:07:18.602Z,100925.00
2023-03-29T18:09:45.438Z,100924.00
2023-03-29T18:12:12.473Z,100926.00
2023-03-29T18:14:39.309Z,100920.00
2023-03-29T18:17:06.397Z,100930.00
2023-03-29T18:19:33.354Z,100911.00
2023-03-29T18:22:00.806Z,100926.00
2023-03-29T18:24:27.567Z,100921.00
2023-03-29T18:26:54.777Z,100909.00
2023-03-29T18:29:21.640Z,100906.00
2023-03-29T18:31:48.451Z,100930.00
2023-03-29T18:34:15.966Z,100920.00
2023-03-29T18:36:42.745Z,100921.00
2023-03-29T18:39:09.695Z,100926.00
2023-03-29T18:41:37.356Z,100928.00
2023-03-29T18:44:05.009Z,100921.00
2023-03-29T18:46:33.138Z,100923.00
2023-03-29T18:49:02.695Z,100914.00
2023-03-29T18:51:29.596Z,100923.00
2023-03-29T18:53:56.659Z,100922.00
2023-03-29T18:56:23.797Z,100920.00
2023-03-29T18:58:50.770Z,100928.00
2023-03-29T19:01:21.539Z,100929.00
2023-03-29T19:03:48.415Z,100935.00
2023-03-29T19:06:15.487Z,100940.00
2023-03-29T19:08:42.796Z,100928.00
2023-03-29T19:11:14.208Z,100931.00
2023-03-29T19:13:41.892Z,100928.00
2023-03-29T19:16:09.178Z,100915.00
2023-03-29T19:18:36.661Z,100908.00
2023-03-29T19:21:04.004Z,100910.00
2023-03-29T19:23:31.402Z,100902.00
2023-03-29T19:26:02.456Z,100909.00
2023-03-29T19:28:30.099Z,100910.00
2023-03-29T19:31:00.170Z,100910.00
2023-03-29T19:33:28.131Z,100906.00
2023-03-29T19:35:54.974Z,100904.00
2023-03-29T19:38:22.588Z,100904.00
2023-03-29T19:40:51.555Z,100909.00
2023-03-29T19:43:20.654Z,100897.00
2023-03-29T19:45:50.245Z,100899.00
2023-03-29T19:48:23.499Z,100899.00
2023-03-29T19:50:51.364Z,100900.00
2023-03-29T19:53:18.538Z,100897.00
2023-03-29T19:55:45.632Z,100896.00
2023-03-29T19:58:13.080Z,100887.00
2023-03-29T20:00:41.862Z,100886.00
2023-03-29T20:03:14.481Z,100882.00
2023-03-29T20:05:41.825Z,100875.00
2023-03-29T20:08:14.393Z,100873.00
2023-03-29T20:10:41.515Z,100884.00
2023-03-29T20:13:08.267Z,100878.00
2023-03-29T20:15:35.280Z,100874.00
2023-03-29T20:18:02.187Z,100866.00
2023-03-29T20:20:29.922Z,100872.00
2023-03-29T20:23:04.616Z,100873.00
2023-03-29T20:25:36.265Z,100874.00
2023-03-29T20:28:04.747Z,100857.00
2023-03-29T20:30:31.532Z,100867.00
2023-03-29T20:32:58.543Z,100859.00
2023-03-29T20:35:25.418Z,100871.00
2023-03-29T20:37:52.173Z,100853.00
2023-03-29T20:40:20.777Z,100846.00
2023-03-29T20:42:48.906Z,100850.00
2023-03-29T20:45:18.886Z,100855.00
2023-03-29T20:47:58.036Z,100847.00
2023-03-29T20:50:26.407Z,100837.00
2023-03-29T20:52:57.104Z,100835.00
2023-03-29T20:55:24.468Z,100829.00
2023-03-29T20:57:59.301Z,100843.00
2023-03-29T21:00:32.621Z,100825.00
2023-03-29T21:03:00.349Z,100830.00
2023-03-29T21:05:30.153Z,100824.00
2023-03-29T21:07:57.099Z,100821.00
2023-03-29T21:10:26.298Z,100814.00
2023-03-29T21:12:54.293Z,100814.00
2023-03-29T21:15:21.389Z,100809.00
2023-03-29T21:17:48.236Z,100816.00
2023-03-29T21:20:15.753Z,100821.00
2023-03-29T21:22:43.143Z,100810.00
2023-03-29T21:25:12.826Z,100814.00
2023-03-29T21:27:39.585Z,100797.00
2023-03-29T21:30:08.026Z,100804.00
2023-03-29T21:32:35.349Z,100801.00
2023-03-29T21:35:02.318Z,100801.00
2023-03-29T21:37:29.107Z,100798.00
2023-03-29T21:39:55.932Z,100795.00
2023-03-29T21:42:22.729Z,100782.00
2023-03-29T21:44:49.574Z,100779.00
2023-03-29T21:47:16.316Z,100775.00
2023-03-29T21:49:43.083Z,100770.00
2023-03-29T21:52:09.880Z,100779.00
2023-03-29T21:54:36.660Z,100771.00
2023-03-29T21:57:03.494Z,100775.00
2023-03-29T21:59:30.799Z,100762.00
2023-03-29T22:01:57.724Z,100771.00
2023-03-29T22:04:35.788Z,100767.00
2023-03-29T22:07:03.456Z,100763.00
2023-03-29T22:09:31.618Z,100764.00
2023-03-29T22:11:59.724Z,100769.00
2023-03-29T22:14:28.739Z,100758.00
2023-03-29T22:16:55.619Z,100753.00
2023-03-29T22:19:22.663Z,100752.00
2023-03-29T22:21:49.433Z,100749.00
2023-03-29T22:24:16.584Z,100759.00
2023-03-29T22:26:44.953Z,100760.00
2023-03-29T22:29:12.198Z,100765.00
2023-03-29T22:31:39.448Z,100760.00
2023-03-29T22:34:06.879Z,100749.00
2023-03-29T22:36:36.118Z,100746.00
2023-03-29T22:39:03.680Z,100746.00
2023-03-29T22:41:30.818Z,100752.00
2023-03-29T22:44:01.107Z,100752.00
2023-03-29T22:46:28.350Z,100744.00
2023-03-29T22:48:55.730Z,100744.00
2023-03-29T22:51:22.795Z,100742.00
2023-03-29T22:53:49.685Z,100739.00
2023-03-29T22:56:17.582Z,100737.00
2023-03-29T22:58:45.685Z,100727.00
2023-03-29T23:01:12.659Z,100723.00
2023-03-29T23:03:39.527Z,100731.00
2023-03-29T23:06:06.656Z,100727.00
2023-03-29T23:08:35.094Z,100721.00
2023-03-29T23:11:02.763Z,100723.00
2023-03-29T23:13:30.576Z,100725.00
2023-03-29T23:16:00.316Z,100718.00
2023-03-29T23:18:31.376Z,100713.00
2023-03-29T23:21:00.215Z,100708.00
2023-03-29T23:23:28.490Z,100708.00
2023-03-29T23:25:56.051Z,100707.00
2023-03-29T23:28:30.297Z,100705.00
2023-03-29T23:31:11.816Z,100700.00
2023-03-29T23:33:42.565Z,100705.00
2023-03-29T23:36:13.743Z,100694.00
2023-03-29T23:38:42.334Z,100701.00
2023-03-29T23:41:12.700Z,100699.00
2023-03-29T23:43:42.788Z,100694.00
2023-03-29T23:46:14.182Z,100692.00
2023-03-29T23:48:46.048Z,100688.00
2023-03-29T23:51:13.260Z,100683.00
2023-03-29T23:53:41.094Z,100684.00
2023-03-29T23:56:08.101Z,100680.00
2023-03-29T23:58:37.727Z,100683.00
